Strabane, Pennsylvania
Current Conditions -  °F | °C
As of 2:15 PM on Thursday 30 Oct 2014 (Local Time) from KAFJ Reporting Station
Overcast Overcast  
Wind Chill: 46°   Ceiling: 4000
Heat Index: 48°   Visibility: 10mi
Dew Point: 36°   Wind: 6mph
Humidity: 62%   Direction: 250°WSW
Pressure: 30.09"   Gusts: NA
Location:  40.25°N, 80.2°W
Report Text: KAFJ 301815Z AUTO 25005KT 10SM SCT032 BKN040 OVC050 09/02 A3009 RMK AO1
Loading
Personal Weather Stations






























Interactive Weather Map
Tropical Storm Tracking
New forecast layout! Learn more

10-Day Weather Forecast

Advertisements
Track Severe Weather on mobile